Impacts TAF Board INFO
FOR SITUATIONAL AWARENESS. NOT TO BE USED FOR FLIGHT PLANNING PURPOSES.
IDs:

KDCA - Washington/National, VA, US

Issued at 1722 UTC 23 Apr 2018
Updated at 1857 UTC 23 Apr 2018
Potential Impact None Slight Moderate High
Time1852Z 23/19Z 23/20Z 23/21Z 23/22Z 23/23Z 24/00Z 24/01Z 24/02Z 24/03Z 24/04Z 24/05Z 24/06Z 24/07Z>>
Type OBS PRVL PRVL PRVL PRVL PRVL PRVL PRVL PRVL PRVL PRVL PRVL PRVL PRVL
VIS 10 >6 >6 >6 >6 >6 >6 >6 >6 >6 >6 >6 >6 >6
CIG 60 250 250 250 250 250 250 250 250 250 250 250 250 250
Cover OVC BKN BKN BKN BKN BKN BKN BKN BKN BKN BKN BKN BKN BKN
FltCat VFR VFR VFR VFR VFR VFR VFR VFR VFR VFR VFR VFR VFR VFR
WX -- -- -- -- -- -- -- -- -- -- -- -- -- --
WDir 160 160 160 160 160 160 140 140 140 140 140 140 140 140
WSpd 11 10 10 10 10 10 6 6 6 6 6 6 6 6
WGst -- 19 19 19 19 19 -- -- -- -- -- -- -- --

Raw TAF
KDCA 231722Z 2318/2424 16010G19KT P6SM FEW060 BKN250
  FM240000 14006KT P6SM BKN250
  FM241100 10006KT 6SM -RA BR OVC040
  FM241400 11008KT 4SM RA BR OVC020
  FM241900 09010G20KT 3SM RA BR OVC008


Raw METAR
KDCA 231852Z 16011KT 10SM BKN060 OVC250 21/08 A3038 RMK AO2 SLP288 T02060083
KDCA 231752Z 15009G17KT 10SM BKN060 OVC250 19/07 A3040 RMK AO2 SLP295 T01890072 10206 20117 55008
KDCA 231652Z 18009KT 10SM SCT050 OVC250 19/06 A3040 RMK AO2 SLP295 T01940061
KDCA 231552Z 20007KT 10SM FEW040 OVC250 19/07 A3043 RMK AO2 SLP302 T01890072

METAR Board
Radar Display
Forecast Discussion

FOR SITUATIONAL AWARENESS. NOT TO BE USED FOR FLIGHT PLANNING PURPOSES.